sensor_id;sensor_type;location;lat;lon;timestamp;P1;P2;P0
31163;PMS5003;17796;49.296;-117.656;2023-06-10T00:10:35;9;9;
31163;PMS5003;17796;49.296;-117.656;2023-06-10T00:25:39;12;11;
31163;PMS5003;17796;49.296;-117.656;2023-06-10T00:40:43;11;11;
31163;PMS5003;17796;49.296;-117.656;2023-06-10T00:55:47;15;14;
31163;PMS5003;17796;49.296;-117.656;2023-06-10T01:10:54;13;12;
31163;PMS5003;17796;49.296;-117.656;2023-06-10T01:26:04;19;17;
31163;PMS5003;17796;49.296;-117.656;2023-06-10T01:41:11;15;12;
31163;PMS5003;17796;49.296;-117.656;2023-06-10T01:56:15;20;16;
31163;PMS5003;17796;49.296;-117.656;2023-06-10T02:11:19;24;24;
31163;PMS5003;17796;49.296;-117.656;2023-06-10T02:26:23;18;18;
31163;PMS5003;17796;49.296;-117.656;2023-06-10T02:41:26;20;17;
31163;PMS5003;17796;49.296;-117.656;2023-06-10T02:56:30;15;13;
31163;PMS5003;17796;49.296;-117.656;2023-06-10T03:11:33;24;21;
31163;PMS5003;17796;49.296;-117.656;2023-06-10T03:26:37;19;18;
31163;PMS5003;17796;49.296;-117.656;2023-06-10T03:41:40;22;22;
31163;PMS5003;17796;49.296;-117.656;2023-06-10T03:56:44;18;18;
31163;PMS5003;17796;49.296;-117.656;2023-06-10T04:11:48;18;18;
31163;PMS5003;17796;49.296;-117.656;2023-06-10T04:26:51;18;15;
31163;PMS5003;17796;49.296;-117.656;2023-06-10T04:41:55;14;14;
31163;PMS5003;17796;49.296;-117.656;2023-06-10T04:56:58;20;19;
31163;PMS5003;17796;49.296;-117.656;2023-06-10T05:12:02;13;13;
31163;PMS5003;17796;49.296;-117.656;2023-06-10T05:27:06;16;14;
31163;PMS5003;17796;49.296;-117.656;2023-06-10T05:42:15;22;19;
31163;PMS5003;17796;49.296;-117.656;2023-06-10T05:57:19;19;18;
31163;PMS5003;17796;49.296;-117.656;2023-06-10T06:12:22;14;14;
31163;PMS5003;17796;49.296;-117.656;2023-06-10T06:27:26;14;13;
31163;PMS5003;17796;49.296;-117.656;2023-06-10T06:42:30;15;15;
31163;PMS5003;17796;49.296;-117.656;2023-06-10T06:57:33;16;16;
31163;PMS5003;17796;49.296;-117.656;2023-06-10T07:12:37;16;16;
31163;PMS5003;17796;49.296;-117.656;2023-06-10T07:27:40;13;13;
31163;PMS5003;17796;49.296;-117.656;2023-06-10T07:42:44;16;13;
31163;PMS5003;17796;49.296;-117.656;2023-06-10T07:57:48;14;14;
31163;PMS5003;17796;49.296;-117.656;2023-06-10T08:12:51;12;12;
31163;PMS5003;17796;49.296;-117.656;2023-06-10T08:27:55;31;31;
31163;PMS5003;17796;49.296;-117.656;2023-06-10T08:43:05;25;25;
31163;PMS5003;17796;49.296;-117.656;2023-06-10T08:58:09;32;30;
31163;PMS5003;17796;49.296;-117.656;2023-06-10T09:13:13;23;19;
31163;PMS5003;17796;49.296;-117.656;2023-06-10T09:28:16;25;25;
31163;PMS5003;17796;49.296;-117.656;2023-06-10T09:43:20;35;34;
31163;PMS5003;17796;49.296;-117.656;2023-06-10T09:58:35;64;64;
31163;PMS5003;17796;49.296;-117.656;2023-06-10T10:13:39;15;13;
31163;PMS5003;17796;49.296;-117.656;2023-06-10T10:28:47;12;12;
31163;PMS5003;17796;49.296;-117.656;2023-06-10T10:43:53;14;14;
31163;PMS5003;17796;49.296;-117.656;2023-06-10T10:59:03;17;15;
31163;PMS5003;17796;49.296;-117.656;2023-06-10T11:14:08;13;11;
31163;PMS5003;17796;49.296;-117.656;2023-06-10T11:29:12;13;11;
31163;PMS5003;17796;49.296;-117.656;2023-06-10T11:44:18;12;10;
31163;PMS5003;17796;49.296;-117.656;2023-06-10T11:59:28;10;10;
31163;PMS5003;17796;49.296;-117.656;2023-06-10T12:15:04;7;7;
31163;PMS5003;17796;49.296;-117.656;2023-06-10T12:30:08;13;13;
31163;PMS5003;17796;49.296;-117.656;2023-06-10T12:45:12;13;11;
31163;PMS5003;17796;49.296;-117.656;2023-06-10T13:00:17;10;10;
31163;PMS5003;17796;49.296;-117.656;2023-06-10T13:15:21;7;7;
31163;PMS5003;17796;49.296;-117.656;2023-06-10T13:30:25;10;8;
31163;PMS5003;17796;49.296;-117.656;2023-06-10T13:45:29;6;5;
31163;PMS5003;17796;49.296;-117.656;2023-06-10T14:00:32;6;6;
31163;PMS5003;17796;49.296;-117.656;2023-06-10T14:15:36;4;4;
31163;PMS5003;17796;49.296;-117.656;2023-06-10T14:30:40;6;6;
31163;PMS5003;17796;49.296;-117.656;2023-06-10T14:45:43;5;5;
31163;PMS5003;17796;49.296;-117.656;2023-06-10T15:00:47;10;9;
31163;PMS5003;17796;49.296;-117.656;2023-06-10T15:15:51;8;7;
31163;PMS5003;17796;49.296;-117.656;2023-06-10T15:30:55;6;5;
31163;PMS5003;17796;49.296;-117.656;2023-06-10T15:45:58;5;5;
31163;PMS5003;17796;49.296;-117.656;2023-06-10T16:01:02;6;6;
31163;PMS5003;17796;49.296;-117.656;2023-06-10T16:16:06;7;5;
31163;PMS5003;17796;49.296;-117.656;2023-06-10T16:31:10;7;6;
31163;PMS5003;17796;49.296;-117.656;2023-06-10T16:46:13;10;8;
31163;PMS5003;17796;49.296;-117.656;2023-06-10T17:01:17;8;7;
31163;PMS5003;17796;49.296;-117.656;2023-06-10T17:16:21;7;7;
31163;PMS5003;17796;49.296;-117.656;2023-06-10T17:31:24;8;7;
31163;PMS5003;17796;49.296;-117.656;2023-06-10T17:46:28;6;6;
31163;PMS5003;17796;49.296;-117.656;2023-06-10T18:01:31;8;7;
31163;PMS5003;17796;49.296;-117.656;2023-06-10T18:16:35;10;9;
31163;PMS5003;17796;49.296;-117.656;2023-06-10T18:31:39;7;6;
31163;PMS5003;17796;49.296;-117.656;2023-06-10T18:46:42;7;6;
31163;PMS5003;17796;49.296;-117.656;2023-06-10T19:01:46;8;8;
31163;PMS5003;17796;49.296;-117.656;2023-06-10T19:16:50;8;7;
31163;PMS5003;17796;49.296;-117.656;2023-06-10T19:31:53;6;6;
31163;PMS5003;17796;49.296;-117.656;2023-06-10T19:46:57;7;7;
31163;PMS5003;17796;49.296;-117.656;2023-06-10T20:02:00;5;5;
31163;PMS5003;17796;49.296;-117.656;2023-06-10T20:17:04;9;7;
31163;PMS5003;17796;49.296;-117.656;2023-06-10T20:32:08;5;5;
31163;PMS5003;17796;49.296;-117.656;2023-06-10T20:47:12;8;8;
31163;PMS5003;17796;49.296;-117.656;2023-06-10T21:02:16;8;7;
31163;PMS5003;17796;49.296;-117.656;2023-06-10T21:17:20;9;9;
31163;PMS5003;17796;49.296;-117.656;2023-06-10T21:32:23;11;8;
31163;PMS5003;17796;49.296;-117.656;2023-06-10T21:47:27;14;10;
31163;PMS5003;17796;49.296;-117.656;2023-06-10T22:02:30;10;7;
31163;PMS5003;17796;49.296;-117.656;2023-06-10T22:17:34;9;8;
31163;PMS5003;17796;49.296;-117.656;2023-06-10T22:32:38;10;10;
31163;PMS5003;17796;49.296;-117.656;2023-06-10T22:47:42;11;10;
31163;PMS5003;17796;49.296;-117.656;2023-06-10T23:02:45;10;9;
31163;PMS5003;17796;49.296;-117.656;2023-06-10T23:17:49;8;7;
31163;PMS5003;17796;49.296;-117.656;2023-06-10T23:32:52;10;7;
31163;PMS5003;17796;49.296;-117.656;2023-06-10T23:47:56;9;9;
